sensor_id;sensor_type;location;lat;lon;timestamp;P1;durP1;ratioP1;P2;durP2;ratioP2
71867;SDS011;59738;48.324;14.230;2023-03-16T00:00:17;4.47;;;2.60;;
71867;SDS011;59738;48.324;14.230;2023-03-16T00:02:45;4.18;;;2.35;;
71867;SDS011;59738;48.324;14.230;2023-03-16T00:05:12;3.55;;;2.70;;
71867;SDS011;59738;48.324;14.230;2023-03-16T00:07:40;3.20;;;2.43;;
71867;SDS011;59738;48.324;14.230;2023-03-16T00:10:08;3.97;;;2.60;;
71867;SDS011;59738;48.324;14.230;2023-03-16T00:12:39;3.53;;;2.40;;
71867;SDS011;59738;48.324;14.230;2023-03-16T00:15:08;2.83;;;2.38;;
71867;SDS011;59738;48.324;14.230;2023-03-16T00:17:36;6.18;;;2.72;;
71867;SDS011;59738;48.324;14.230;2023-03-16T00:20:04;5.40;;;3.07;;
71867;SDS011;59738;48.324;14.230;2023-03-16T00:22:32;3.78;;;2.58;;
71867;SDS011;59738;48.324;14.230;2023-03-16T00:25:00;4.85;;;2.90;;
71867;SDS011;59738;48.324;14.230;2023-03-16T00:27:29;3.55;;;2.85;;
71867;SDS011;59738;48.324;14.230;2023-03-16T00:29:58;4.00;;;2.75;;
71867;SDS011;59738;48.324;14.230;2023-03-16T00:32:30;3.60;;;2.77;;
71867;SDS011;59738;48.324;14.230;2023-03-16T00:34:59;5.78;;;2.83;;
71867;SDS011;59738;48.324;14.230;2023-03-16T00:37:29;2.95;;;2.42;;
71867;SDS011;59738;48.324;14.230;2023-03-16T00:39:58;2.85;;;2.15;;
71867;SDS011;59738;48.324;14.230;2023-03-16T00:42:28;4.20;;;3.00;;
71867;SDS011;59738;48.324;14.230;2023-03-16T00:45:00;4.27;;;2.57;;
71867;SDS011;59738;48.324;14.230;2023-03-16T00:47:28;2.70;;;2.42;;
71867;SDS011;59738;48.324;14.230;2023-03-16T00:49:58;3.30;;;2.75;;
71867;SDS011;59738;48.324;14.230;2023-03-16T00:52:26;4.07;;;2.97;;
71867;SDS011;59738;48.324;14.230;2023-03-16T00:54:54;4.22;;;2.58;;
71867;SDS011;59738;48.324;14.230;2023-03-16T00:57:22;3.63;;;2.57;;
71867;SDS011;59738;48.324;14.230;2023-03-16T00:59:52;5.93;;;2.90;;
71867;SDS011;59738;48.324;14.230;2023-03-16T01:02:21;4.40;;;2.97;;
71867;SDS011;59738;48.324;14.230;2023-03-16T01:04:49;4.95;;;2.97;;
71867;SDS011;59738;48.324;14.230;2023-03-16T01:07:18;4.43;;;3.03;;
71867;SDS011;59738;48.324;14.230;2023-03-16T01:09:46;3.80;;;2.80;;
71867;SDS011;59738;48.324;14.230;2023-03-16T01:12:14;4.20;;;2.78;;
71867;SDS011;59738;48.324;14.230;2023-03-16T01:14:44;3.67;;;3.00;;
71867;SDS011;59738;48.324;14.230;2023-03-16T01:17:12;5.78;;;2.58;;
71867;SDS011;59738;48.324;14.230;2023-03-16T01:19:41;3.97;;;2.80;;
71867;SDS011;59738;48.324;14.230;2023-03-16T01:22:10;4.40;;;3.03;;
71867;SDS011;59738;48.324;14.230;2023-03-16T01:24:38;4.00;;;2.90;;
71867;SDS011;59738;48.324;14.230;2023-03-16T01:27:06;5.03;;;3.00;;
71867;SDS011;59738;48.324;14.230;2023-03-16T01:29:34;12.20;;;3.35;;
71867;SDS011;59738;48.324;14.230;2023-03-16T01:32:03;5.55;;;3.13;;
71867;SDS011;59738;48.324;14.230;2023-03-16T01:34:31;4.87;;;3.60;;
71867;SDS011;59738;48.324;14.230;2023-03-16T01:37:00;5.30;;;3.33;;
71867;SDS011;59738;48.324;14.230;2023-03-16T01:39:43;6.82;;;3.63;;
71867;SDS011;59738;48.324;14.230;2023-03-16T01:42:12;6.43;;;3.17;;
71867;SDS011;59738;48.324;14.230;2023-03-16T01:44:49;5.85;;;2.85;;
71867;SDS011;59738;48.324;14.230;2023-03-16T01:47:19;4.70;;;2.93;;
71867;SDS011;59738;48.324;14.230;2023-03-16T01:49:48;3.53;;;2.85;;
71867;SDS011;59738;48.324;14.230;2023-03-16T01:52:25;5.50;;;3.50;;
71867;SDS011;59738;48.324;14.230;2023-03-16T01:54:56;7.68;;;3.20;;
71867;SDS011;59738;48.324;14.230;2023-03-16T01:57:25;4.85;;;2.83;;
71867;SDS011;59738;48.324;14.230;2023-03-16T01:59:56;4.37;;;3.00;;
71867;SDS011;59738;48.324;14.230;2023-03-16T02:02:40;5.88;;;2.88;;
71867;SDS011;59738;48.324;14.230;2023-03-16T02:05:14;4.72;;;2.95;;
71867;SDS011;59738;48.324;14.230;2023-03-16T02:07:46;4.32;;;2.85;;
71867;SDS011;59738;48.324;14.230;2023-03-16T02:10:15;4.22;;;2.83;;
71867;SDS011;59738;48.324;14.230;2023-03-16T02:12:44;5.10;;;3.10;;
71867;SDS011;59738;48.324;14.230;2023-03-16T02:15:12;4.07;;;2.80;;
71867;SDS011;59738;48.324;14.230;2023-03-16T02:17:41;6.22;;;3.33;;
71867;SDS011;59738;48.324;14.230;2023-03-16T02:20:13;6.00;;;3.42;;
71867;SDS011;59738;48.324;14.230;2023-03-16T02:22:50;4.75;;;3.15;;
71867;SDS011;59738;48.324;14.230;2023-03-16T02:25:20;7.03;;;3.30;;
71867;SDS011;59738;48.324;14.230;2023-03-16T02:27:51;4.60;;;3.08;;
71867;SDS011;59738;48.324;14.230;2023-03-16T02:30:24;3.08;;;2.50;;
71867;SDS011;59738;48.324;14.230;2023-03-16T02:32:58;4.30;;;2.13;;
71867;SDS011;59738;48.324;14.230;2023-03-16T02:35:26;3.70;;;2.42;;
71867;SDS011;59738;48.324;14.230;2023-03-16T02:37:54;3.17;;;2.00;;
71867;SDS011;59738;48.324;14.230;2023-03-16T02:40:27;2.33;;;2.05;;
71867;SDS011;59738;48.324;14.230;2023-03-16T02:42:58;3.65;;;2.00;;
71867;SDS011;59738;48.324;14.230;2023-03-16T02:45:31;3.60;;;2.58;;
71867;SDS011;59738;48.324;14.230;2023-03-16T02:48:04;2.28;;;1.70;;
71867;SDS011;59738;48.324;14.230;2023-03-16T02:50:43;4.10;;;2.63;;
71867;SDS011;59738;48.324;14.230;2023-03-16T02:53:13;4.93;;;3.35;;
71867;SDS011;59738;48.324;14.230;2023-03-16T02:55:41;4.85;;;2.90;;
71867;SDS011;59738;48.324;14.230;2023-03-16T02:58:10;3.72;;;2.92;;
71867;SDS011;59738;48.324;14.230;2023-03-16T03:00:38;3.00;;;2.42;;
71867;SDS011;59738;48.324;14.230;2023-03-16T03:03:07;6.30;;;2.87;;
71867;SDS011;59738;48.324;14.230;2023-03-16T03:05:34;8.45;;;2.85;;
71867;SDS011;59738;48.324;14.230;2023-03-16T03:08:02;6.22;;;3.20;;
71867;SDS011;59738;48.324;14.230;2023-03-16T03:10:31;4.80;;;2.92;;
71867;SDS011;59738;48.324;14.230;2023-03-16T03:12:58;7.82;;;3.03;;
71867;SDS011;59738;48.324;14.230;2023-03-16T03:15:27;6.13;;;3.10;;
71867;SDS011;59738;48.324;14.230;2023-03-16T03:18:04;4.38;;;2.80;;
71867;SDS011;59738;48.324;14.230;2023-03-16T03:20:32;4.90;;;2.90;;
71867;SDS011;59738;48.324;14.230;2023-03-16T03:23:00;3.85;;;2.85;;
71867;SDS011;59738;48.324;14.230;2023-03-16T03:25:28;4.57;;;2.88;;
71867;SDS011;59738;48.324;14.230;2023-03-16T03:27:59;3.40;;;2.73;;
71867;SDS011;59738;48.324;14.230;2023-03-16T03:30:30;4.18;;;2.83;;
71867;SDS011;59738;48.324;14.230;2023-03-16T03:32:57;6.05;;;2.80;;
71867;SDS011;59738;48.324;14.230;2023-03-16T03:35:27;4.40;;;2.72;;
71867;SDS011;59738;48.324;14.230;2023-03-16T03:37:55;2.88;;;2.33;;
71867;SDS011;59738;48.324;14.230;2023-03-16T03:40:23;6.13;;;2.33;;
71867;SDS011;59738;48.324;14.230;2023-03-16T03:42:56;3.47;;;2.22;;
71867;SDS011;59738;48.324;14.230;2023-03-16T03:45:24;5.07;;;2.95;;
71867;SDS011;59738;48.324;14.230;2023-03-16T03:47:52;5.60;;;3.13;;
71867;SDS011;59738;48.324;14.230;2023-03-16T03:50:22;4.65;;;2.95;;
71867;SDS011;59738;48.324;14.230;2023-03-16T03:53:02;2.53;;;2.23;;
71867;SDS011;59738;48.324;14.230;2023-03-16T03:55:32;2.33;;;2.08;;
71867;SDS011;59738;48.324;14.230;2023-03-16T03:58:00;2.85;;;2.50;;
71867;SDS011;59738;48.324;14.230;2023-03-16T04:00:28;2.63;;;2.17;;
71867;SDS011;59738;48.324;14.230;2023-03-16T04:02:55;2.42;;;2.22;;
71867;SDS011;59738;48.324;14.230;2023-03-16T04:05:30;4.67;;;2.90;;
71867;SDS011;59738;48.324;14.230;2023-03-16T04:07:58;3.67;;;2.88;;
71867;SDS011;59738;48.324;14.230;2023-03-16T04:10:28;2.58;;;2.05;;
71867;SDS011;59738;48.324;14.230;2023-03-16T04:12:56;3.45;;;2.70;;
71867;SDS011;59738;48.324;14.230;2023-03-16T04:15:25;2.90;;;2.47;;
71867;SDS011;59738;48.324;14.230;2023-03-16T04:18:07;4.37;;;2.77;;
71867;SDS011;59738;48.324;14.230;2023-03-16T04:20:35;4.93;;;2.75;;
71867;SDS011;59738;48.324;14.230;2023-03-16T04:23:03;5.07;;;2.65;;
71867;SDS011;59738;48.324;14.230;2023-03-16T04:25:32;7.05;;;2.90;;
71867;SDS011;59738;48.324;14.230;2023-03-16T04:28:03;4.13;;;2.65;;
71867;SDS011;59738;48.324;14.230;2023-03-16T04:30:33;3.90;;;2.43;;
71867;SDS011;59738;48.324;14.230;2023-03-16T04:33:21;4.90;;;2.78;;
71867;SDS011;59738;48.324;14.230;2023-03-16T04:35:49;4.65;;;2.20;;
71867;SDS011;59738;48.324;14.230;2023-03-16T04:38:19;3.53;;;2.35;;
71867;SDS011;59738;48.324;14.230;2023-03-16T04:40:57;3.03;;;2.38;;
71867;SDS011;59738;48.324;14.230;2023-03-16T04:43:31;3.53;;;2.47;;
71867;SDS011;59738;48.324;14.230;2023-03-16T04:46:03;4.85;;;3.05;;
71867;SDS011;59738;48.324;14.230;2023-03-16T04:48:33;1.65;;;1.55;;
71867;SDS011;59738;48.324;14.230;2023-03-16T04:51:03;6.20;;;1.55;;
71867;SDS011;59738;48.324;14.230;2023-03-16T04:53:34;3.10;;;2.00;;
71867;SDS011;59738;48.324;14.230;2023-03-16T04:56:11;1.57;;;1.47;;
71867;SDS011;59738;48.324;14.230;2023-03-16T04:58:45;2.90;;;2.17;;
71867;SDS011;59738;48.324;14.230;2023-03-16T05:01:13;2.60;;;2.40;;
71867;SDS011;59738;48.324;14.230;2023-03-16T05:03:42;3.70;;;2.35;;
71867;SDS011;59738;48.324;14.230;2023-03-16T05:06:10;2.10;;;1.90;;
71867;SDS011;59738;48.324;14.230;2023-03-16T05:08:39;4.10;;;2.60;;
71867;SDS011;59738;48.324;14.230;2023-03-16T05:11:08;3.38;;;2.55;;
71867;SDS011;59738;48.324;14.230;2023-03-16T05:13:46;3.70;;;2.83;;
71867;SDS011;59738;48.324;14.230;2023-03-16T05:16:14;3.40;;;2.42;;
71867;SDS011;59738;48.324;14.230;2023-03-16T05:18:42;3.53;;;2.38;;
71867;SDS011;59738;48.324;14.230;2023-03-16T05:21:09;7.80;;;2.50;;
71867;SDS011;59738;48.324;14.230;2023-03-16T05:23:49;4.47;;;2.58;;
71867;SDS011;59738;48.324;14.230;2023-03-16T05:26:18;5.07;;;3.30;;
71867;SDS011;59738;48.324;14.230;2023-03-16T05:28:47;9.30;;;3.00;;
71867;SDS011;59738;48.324;14.230;2023-03-16T05:31:17;3.55;;;2.53;;
71867;SDS011;59738;48.324;14.230;2023-03-16T05:33:51;5.00;;;2.67;;
71867;SDS011;59738;48.324;14.230;2023-03-16T05:36:19;3.33;;;2.53;;
71867;SDS011;59738;48.324;14.230;2023-03-16T05:38:51;3.53;;;2.80;;
71867;SDS011;59738;48.324;14.230;2023-03-16T05:41:32;4.45;;;3.22;;
71867;SDS011;59738;48.324;14.230;2023-03-16T05:44:09;4.18;;;2.95;;
71867;SDS011;59738;48.324;14.230;2023-03-16T05:46:54;3.23;;;2.47;;
71867;SDS011;59738;48.324;14.230;2023-03-16T05:49:22;2.40;;;2.03;;
71867;SDS011;59738;48.324;14.230;2023-03-16T05:51:49;8.70;;;3.13;;
71867;SDS011;59738;48.324;14.230;2023-03-16T05:54:17;5.57;;;2.55;;
71867;SDS011;59738;48.324;14.230;2023-03-16T05:56:47;2.35;;;2.15;;
71867;SDS011;59738;48.324;14.230;2023-03-16T05:59:19;4.87;;;3.03;;
71867;SDS011;59738;48.324;14.230;2023-03-16T06:01:52;1.70;;;1.60;;
71867;SDS011;59738;48.324;14.230;2023-03-16T06:04:20;2.40;;;2.20;;
71867;SDS011;59738;48.324;14.230;2023-03-16T06:06:48;2.65;;;2.10;;
71867;SDS011;59738;48.324;14.230;2023-03-16T06:09:20;4.22;;;3.08;;
71867;SDS011;59738;48.324;14.230;2023-03-16T06:11:48;3.30;;;2.27;;
71867;SDS011;59738;48.324;14.230;2023-03-16T06:14:18;2.28;;;1.77;;
71867;SDS011;59738;48.324;14.230;2023-03-16T06:16:46;8.32;;;3.13;;
71867;SDS011;59738;48.324;14.230;2023-03-16T06:19:14;6.15;;;2.97;;
71867;SDS011;59738;48.324;14.230;2023-03-16T06:21:43;6.28;;;2.83;;
71867;SDS011;59738;48.324;14.230;2023-03-16T06:24:11;3.83;;;2.73;;
71867;SDS011;59738;48.324;14.230;2023-03-16T06:26:39;3.28;;;2.38;;
71867;SDS011;59738;48.324;14.230;2023-03-16T06:29:10;7.70;;;3.33;;
71867;SDS011;59738;48.324;14.230;2023-03-16T06:31:40;4.10;;;2.75;;
71867;SDS011;59738;48.324;14.230;2023-03-16T06:34:07;4.30;;;2.30;;
71867;SDS011;59738;48.324;14.230;2023-03-16T06:36:37;3.63;;;2.10;;
71867;SDS011;59738;48.324;14.230;2023-03-16T06:39:09;3.83;;;2.35;;
71867;SDS011;59738;48.324;14.230;2023-03-16T06:41:40;1.55;;;1.45;;
71867;SDS011;59738;48.324;14.230;2023-03-16T06:44:10;3.50;;;1.75;;
71867;SDS011;59738;48.324;14.230;2023-03-16T06:46:48;2.33;;;1.80;;
71867;SDS011;59738;48.324;14.230;2023-03-16T06:49:15;2.03;;;1.83;;
71867;SDS011;59738;48.324;14.230;2023-03-16T06:51:43;4.97;;;2.10;;
71867;SDS011;59738;48.324;14.230;2023-03-16T06:54:11;1.95;;;1.85;;
71867;SDS011;59738;48.324;14.230;2023-03-16T06:56:39;4.63;;;2.67;;
71867;SDS011;59738;48.324;14.230;2023-03-16T06:59:06;5.60;;;3.20;;
71867;SDS011;59738;48.324;14.230;2023-03-16T07:01:36;2.83;;;2.40;;
71867;SDS011;59738;48.324;14.230;2023-03-16T07:04:04;6.80;;;3.10;;
71867;SDS011;59738;48.324;14.230;2023-03-16T07:06:33;3.85;;;2.97;;
71867;SDS011;59738;48.324;14.230;2023-03-16T07:09:01;6.38;;;3.13;;
71867;SDS011;59738;48.324;14.230;2023-03-16T07:11:30;5.80;;;3.40;;
71867;SDS011;59738;48.324;14.230;2023-03-16T07:13:58;4.87;;;2.73;;
71867;SDS011;59738;48.324;14.230;2023-03-16T07:16:28;7.93;;;2.40;;
71867;SDS011;59738;48.324;14.230;2023-03-16T07:18:58;2.88;;;2.35;;
71867;SDS011;59738;48.324;14.230;2023-03-16T07:21:28;2.97;;;2.13;;
71867;SDS011;59738;48.324;14.230;2023-03-16T07:23:57;3.75;;;3.00;;
71867;SDS011;59738;48.324;14.230;2023-03-16T07:26:29;5.17;;;2.87;;
71867;SDS011;59738;48.324;14.230;2023-03-16T07:28:59;3.00;;;1.95;;
71867;SDS011;59738;48.324;14.230;2023-03-16T07:31:28;3.58;;;2.33;;
71867;SDS011;59738;48.324;14.230;2023-03-16T07:33:57;4.35;;;2.70;;
71867;SDS011;59738;48.324;14.230;2023-03-16T07:36:34;5.10;;;2.90;;
71867;SDS011;59738;48.324;14.230;2023-03-16T07:39:03;2.03;;;1.93;;
71867;SDS011;59738;48.324;14.230;2023-03-16T07:41:33;4.72;;;2.38;;
71867;SDS011;59738;48.324;14.230;2023-03-16T07:44:15;5.07;;;2.38;;
71867;SDS011;59738;48.324;14.230;2023-03-16T07:46:47;2.35;;;1.92;;
71867;SDS011;59738;48.324;14.230;2023-03-16T07:49:15;3.55;;;1.85;;
71867;SDS011;59738;48.324;14.230;2023-03-16T07:51:44;5.23;;;2.97;;
71867;SDS011;59738;48.324;14.230;2023-03-16T07:54:13;2.63;;;2.40;;
71867;SDS011;59738;48.324;14.230;2023-03-16T07:56:41;2.78;;;2.15;;
71867;SDS011;59738;48.324;14.230;2023-03-16T07:59:11;2.15;;;1.95;;
71867;SDS011;59738;48.324;14.230;2023-03-16T08:01:38;3.28;;;2.45;;
71867;SDS011;59738;48.324;14.230;2023-03-16T08:04:06;7.23;;;2.80;;
71867;SDS011;59738;48.324;14.230;2023-03-16T08:06:34;3.65;;;2.17;;
71867;SDS011;59738;48.324;14.230;2023-03-16T08:09:03;3.25;;;2.28;;
71867;SDS011;59738;48.324;14.230;2023-03-16T08:11:35;4.10;;;2.65;;
71867;SDS011;59738;48.324;14.230;2023-03-16T08:14:03;1.80;;;1.70;;
71867;SDS011;59738;48.324;14.230;2023-03-16T08:16:52;3.70;;;2.23;;
71867;SDS011;59738;48.324;14.230;2023-03-16T08:19:20;3.58;;;2.75;;
71867;SDS011;59738;48.324;14.230;2023-03-16T08:21:50;3.58;;;2.75;;
71867;SDS011;59738;48.324;14.230;2023-03-16T08:24:19;5.47;;;2.80;;
71867;SDS011;59738;48.324;14.230;2023-03-16T08:26:47;7.35;;;2.72;;
71867;SDS011;59738;48.324;14.230;2023-03-16T08:29:15;8.00;;;2.80;;
71867;SDS011;59738;48.324;14.230;2023-03-16T08:31:44;4.00;;;2.28;;
71867;SDS011;59738;48.324;14.230;2023-03-16T08:34:18;2.95;;;2.55;;
71867;SDS011;59738;48.324;14.230;2023-03-16T08:36:48;2.90;;;2.17;;
71867;SDS011;59738;48.324;14.230;2023-03-16T08:39:16;2.63;;;2.00;;
71867;SDS011;59738;48.324;14.230;2023-03-16T08:41:48;3.37;;;2.67;;
71867;SDS011;59738;48.324;14.230;2023-03-16T08:44:45;3.15;;;2.00;;
71867;SDS011;59738;48.324;14.230;2023-03-16T08:47:13;3.22;;;2.35;;
71867;SDS011;59738;48.324;14.230;2023-03-16T08:49:43;4.95;;;2.50;;
71867;SDS011;59738;48.324;14.230;2023-03-16T08:52:13;4.18;;;2.47;;
71867;SDS011;59738;48.324;14.230;2023-03-16T08:54:42;4.87;;;2.70;;
71867;SDS011;59738;48.324;14.230;2023-03-16T08:57:10;6.72;;;3.15;;
71867;SDS011;59738;48.324;14.230;2023-03-16T08:59:37;24.85;;;5.60;;
71867;SDS011;59738;48.324;14.230;2023-03-16T09:02:05;5.15;;;3.38;;
71867;SDS011;59738;48.324;14.230;2023-03-16T09:04:33;5.32;;;3.00;;
71867;SDS011;59738;48.324;14.230;2023-03-16T09:07:01;3.90;;;2.70;;
71867;SDS011;59738;48.324;14.230;2023-03-16T09:09:29;5.28;;;2.58;;
71867;SDS011;59738;48.324;14.230;2023-03-16T09:11:59;3.80;;;2.80;;
71867;SDS011;59738;48.324;14.230;2023-03-16T09:14:27;4.13;;;3.00;;
71867;SDS011;59738;48.324;14.230;2023-03-16T09:16:54;7.82;;;4.13;;
71867;SDS011;59738;48.324;14.230;2023-03-16T09:19:22;6.73;;;3.57;;
71867;SDS011;59738;48.324;14.230;2023-03-16T09:21:50;6.03;;;3.53;;
71867;SDS011;59738;48.324;14.230;2023-03-16T09:24:18;4.38;;;3.10;;
71867;SDS011;59738;48.324;14.230;2023-03-16T09:26:46;6.03;;;3.40;;
71867;SDS011;59738;48.324;14.230;2023-03-16T09:29:14;6.10;;;3.58;;
71867;SDS011;59738;48.324;14.230;2023-03-16T09:31:43;5.77;;;3.00;;
71867;SDS011;59738;48.324;14.230;2023-03-16T09:34:12;2.65;;;2.28;;
71867;SDS011;59738;48.324;14.230;2023-03-16T09:36:40;4.38;;;2.90;;
71867;SDS011;59738;48.324;14.230;2023-03-16T09:39:07;7.72;;;3.20;;
71867;SDS011;59738;48.324;14.230;2023-03-16T09:41:39;4.88;;;2.80;;
71867;SDS011;59738;48.324;14.230;2023-03-16T09:44:20;4.37;;;2.87;;
71867;SDS011;59738;48.324;14.230;2023-03-16T09:46:54;3.22;;;2.33;;
71867;SDS011;59738;48.324;14.230;2023-03-16T09:49:26;6.10;;;3.20;;
71867;SDS011;59738;48.324;14.230;2023-03-16T09:51:57;3.45;;;2.40;;
71867;SDS011;59738;48.324;14.230;2023-03-16T09:54:30;3.50;;;2.05;;
71867;SDS011;59738;48.324;14.230;2023-03-16T09:57:04;3.57;;;2.60;;
71867;SDS011;59738;48.324;14.230;2023-03-16T09:59:33;3.38;;;2.33;;
71867;SDS011;59738;48.324;14.230;2023-03-16T10:02:04;5.57;;;3.08;;
71867;SDS011;59738;48.324;14.230;2023-03-16T10:04:46;2.25;;;2.00;;
71867;SDS011;59738;48.324;14.230;2023-03-16T10:07:23;2.50;;;2.28;;
71867;SDS011;59738;48.324;14.230;2023-03-16T10:09:55;2.93;;;1.83;;
71867;SDS011;59738;48.324;14.230;2023-03-16T10:12:24;4.55;;;2.30;;
71867;SDS011;59738;48.324;14.230;2023-03-16T10:14:57;3.00;;;2.30;;
71867;SDS011;59738;48.324;14.230;2023-03-16T10:17:31;2.50;;;1.83;;
71867;SDS011;59738;48.324;14.230;2023-03-16T10:20:04;5.40;;;2.25;;
71867;SDS011;59738;48.324;14.230;2023-03-16T10:22:34;5.63;;;2.80;;
71867;SDS011;59738;48.324;14.230;2023-03-16T10:25:06;3.05;;;1.98;;
71867;SDS011;59738;48.324;14.230;2023-03-16T10:27:38;4.00;;;2.90;;
71867;SDS011;59738;48.324;14.230;2023-03-16T10:30:14;2.47;;;2.13;;
71867;SDS011;59738;48.324;14.230;2023-03-16T10:32:47;4.40;;;2.72;;
71867;SDS011;59738;48.324;14.230;2023-03-16T10:35:19;5.97;;;2.37;;
71867;SDS011;59738;48.324;14.230;2023-03-16T10:37:52;5.03;;;2.60;;
71867;SDS011;59738;48.324;14.230;2023-03-16T10:40:19;6.75;;;3.28;;
71867;SDS011;59738;48.324;14.230;2023-03-16T10:42:49;4.55;;;2.28;;
71867;SDS011;59738;48.324;14.230;2023-03-16T10:45:22;2.30;;;2.10;;
71867;SDS011;59738;48.324;14.230;2023-03-16T10:47:51;4.57;;;2.20;;
71867;SDS011;59738;48.324;14.230;2023-03-16T10:50:22;3.10;;;2.30;;
71867;SDS011;59738;48.324;14.230;2023-03-16T10:52:52;5.43;;;2.53;;
71867;SDS011;59738;48.324;14.230;2023-03-16T10:55:22;4.03;;;2.15;;
71867;SDS011;59738;48.324;14.230;2023-03-16T10:57:51;3.58;;;2.03;;
71867;SDS011;59738;48.324;14.230;2023-03-16T11:00:23;4.80;;;2.40;;
71867;SDS011;59738;48.324;14.230;2023-03-16T11:02:54;2.97;;;2.42;;
71867;SDS011;59738;48.324;14.230;2023-03-16T11:05:26;4.82;;;2.55;;
71867;SDS011;59738;48.324;14.230;2023-03-16T11:07:57;2.95;;;2.33;;
71867;SDS011;59738;48.324;14.230;2023-03-16T11:10:30;2.33;;;1.77;;
71867;SDS011;59738;48.324;14.230;2023-03-16T11:13:00;7.00;;;2.33;;
71867;SDS011;59738;48.324;14.230;2023-03-16T11:15:39;1.85;;;1.70;;
71867;SDS011;59738;48.324;14.230;2023-03-16T11:18:15;2.83;;;2.03;;
71867;SDS011;59738;48.324;14.230;2023-03-16T11:20:49;4.25;;;1.95;;
71867;SDS011;59738;48.324;14.230;2023-03-16T11:23:18;1.95;;;1.85;;
71867;SDS011;59738;48.324;14.230;2023-03-16T11:25:47;4.30;;;2.60;;
71867;SDS011;59738;48.324;14.230;2023-03-16T11:28:18;2.20;;;1.83;;
71867;SDS011;59738;48.324;14.230;2023-03-16T11:30:58;2.65;;;1.88;;
71867;SDS011;59738;48.324;14.230;2023-03-16T11:33:30;2.15;;;1.70;;
71867;SDS011;59738;48.324;14.230;2023-03-16T11:36:00;1.92;;;1.83;;
71867;SDS011;59738;48.324;14.230;2023-03-16T11:38:36;1.60;;;1.30;;
71867;SDS011;59738;48.324;14.230;2023-03-16T11:41:09;3.78;;;1.50;;
71867;SDS011;59738;48.324;14.230;2023-03-16T11:43:49;2.78;;;2.00;;
71867;SDS011;59738;48.324;14.230;2023-03-16T11:46:21;2.53;;;1.70;;
71867;SDS011;59738;48.324;14.230;2023-03-16T11:48:57;3.88;;;1.70;;
71867;SDS011;59738;48.324;14.230;2023-03-16T11:51:39;2.50;;;1.40;;
71867;SDS011;59738;48.324;14.230;2023-03-16T11:54:16;2.78;;;1.48;;
71867;SDS011;59738;48.324;14.230;2023-03-16T11:56:56;2.35;;;1.70;;
71867;SDS011;59738;48.324;14.230;2023-03-16T11:59:32;2.25;;;1.70;;
71867;SDS011;59738;48.324;14.230;2023-03-16T12:02:18;4.10;;;1.85;;
71867;SDS011;59738;48.324;14.230;2023-03-16T12:04:55;3.53;;;1.87;;
71867;SDS011;59738;48.324;14.230;2023-03-16T12:07:34;4.25;;;1.80;;
71867;SDS011;59738;48.324;14.230;2023-03-16T12:10:22;2.03;;;1.83;;
71867;SDS011;59738;48.324;14.230;2023-03-16T12:12:58;1.50;;;1.40;;
71867;SDS011;59738;48.324;14.230;2023-03-16T12:15:33;1.85;;;1.75;;
71867;SDS011;59738;48.324;14.230;2023-03-16T12:18:07;3.90;;;1.30;;
71867;SDS011;59738;48.324;14.230;2023-03-16T12:20:43;1.98;;;1.63;;
71867;SDS011;59738;48.324;14.230;2023-03-16T12:23:14;2.65;;;1.38;;
71867;SDS011;59738;48.324;14.230;2023-03-16T12:25:48;2.45;;;1.50;;
71867;SDS011;59738;48.324;14.230;2023-03-16T12:28:20;1.40;;;1.40;;
71867;SDS011;59738;48.324;14.230;2023-03-16T12:30:53;3.47;;;1.50;;
71867;SDS011;59738;48.324;14.230;2023-03-16T12:33:34;1.98;;;1.27;;
71867;SDS011;59738;48.324;14.230;2023-03-16T12:36:11;1.50;;;1.40;;
71867;SDS011;59738;48.324;14.230;2023-03-16T12:39:05;1.83;;;1.65;;
71867;SDS011;59738;48.324;14.230;2023-03-16T12:41:36;1.48;;;1.38;;
71867;SDS011;59738;48.324;14.230;2023-03-16T12:44:10;1.30;;;1.20;;
71867;SDS011;59738;48.324;14.230;2023-03-16T12:46:43;2.25;;;1.38;;
71867;SDS011;59738;48.324;14.230;2023-03-16T12:49:15;1.73;;;1.60;;
71867;SDS011;59738;48.324;14.230;2023-03-16T12:51:46;1.50;;;1.40;;
71867;SDS011;59738;48.324;14.230;2023-03-16T12:54:25;1.60;;;1.50;;
71867;SDS011;59738;48.324;14.230;2023-03-16T12:56:58;1.33;;;1.17;;
71867;SDS011;59738;48.324;14.230;2023-03-16T12:59:34;1.52;;;1.42;;
71867;SDS011;59738;48.324;14.230;2023-03-16T13:02:07;1.80;;;1.70;;
71867;SDS011;59738;48.324;14.230;2023-03-16T13:04:39;2.67;;;1.90;;
71867;SDS011;59738;48.324;14.230;2023-03-16T13:07:14;1.73;;;1.48;;
71867;SDS011;59738;48.324;14.230;2023-03-16T13:09:45;1.27;;;1.20;;
71867;SDS011;59738;48.324;14.230;2023-03-16T13:12:20;4.20;;;1.50;;
71867;SDS011;59738;48.324;14.230;2023-03-16T13:14:49;1.40;;;1.30;;
71867;SDS011;59738;48.324;14.230;2023-03-16T13:17:26;1.73;;;1.40;;
71867;SDS011;59738;48.324;14.230;2023-03-16T13:20:01;1.85;;;1.50;;
71867;SDS011;59738;48.324;14.230;2023-03-16T13:22:43;1.57;;;1.20;;
71867;SDS011;59738;48.324;14.230;2023-03-16T13:25:14;1.35;;;1.25;;
71867;SDS011;59738;48.324;14.230;2023-03-16T13:27:47;2.33;;;1.40;;
71867;SDS011;59738;48.324;14.230;2023-03-16T13:30:19;1.63;;;1.35;;
71867;SDS011;59738;48.324;14.230;2023-03-16T13:32:51;1.30;;;1.20;;
71867;SDS011;59738;48.324;14.230;2023-03-16T13:35:23;1.73;;;1.50;;
71867;SDS011;59738;48.324;14.230;2023-03-16T13:37:52;1.42;;;1.33;;
71867;SDS011;59738;48.324;14.230;2023-03-16T13:40:21;5.47;;;1.50;;
71867;SDS011;59738;48.324;14.230;2023-03-16T13:42:50;1.88;;;1.10;;
71867;SDS011;59738;48.324;14.230;2023-03-16T13:45:21;1.38;;;1.27;;
71867;SDS011;59738;48.324;14.230;2023-03-16T13:47:49;2.10;;;1.20;;
71867;SDS011;59738;48.324;14.230;2023-03-16T13:50:18;1.40;;;1.20;;
71867;SDS011;59738;48.324;14.230;2023-03-16T13:52:52;2.40;;;1.40;;
71867;SDS011;59738;48.324;14.230;2023-03-16T13:55:26;0.85;;;0.85;;
71867;SDS011;59738;48.324;14.230;2023-03-16T13:57:57;1.52;;;1.42;;
71867;SDS011;59738;48.324;14.230;2023-03-16T14:00:28;1.30;;;1.00;;
71867;SDS011;59738;48.324;14.230;2023-03-16T14:02:58;1.05;;;1.02;;
71867;SDS011;59738;48.324;14.230;2023-03-16T14:05:30;1.92;;;1.73;;
71867;SDS011;59738;48.324;14.230;2023-03-16T14:08:01;1.20;;;1.20;;
71867;SDS011;59738;48.324;14.230;2023-03-16T14:10:30;1.77;;;1.33;;
71867;SDS011;59738;48.324;14.230;2023-03-16T14:13:05;1.10;;;1.10;;
71867;SDS011;59738;48.324;14.230;2023-03-16T14:15:35;1.52;;;1.42;;
71867;SDS011;59738;48.324;14.230;2023-03-16T14:18:11;1.55;;;1.42;;
71867;SDS011;59738;48.324;14.230;2023-03-16T14:20:41;1.13;;;1.10;;
71867;SDS011;59738;48.324;14.230;2023-03-16T14:23:19;2.22;;;1.17;;
71867;SDS011;59738;48.324;14.230;2023-03-16T14:25:55;1.30;;;1.20;;
71867;SDS011;59738;48.324;14.230;2023-03-16T14:28:26;2.08;;;1.20;;
71867;SDS011;59738;48.324;14.230;2023-03-16T14:31:00;1.60;;;1.50;;
71867;SDS011;59738;48.324;14.230;2023-03-16T14:33:30;1.83;;;1.50;;
71867;SDS011;59738;48.324;14.230;2023-03-16T14:36:05;3.92;;;1.20;;
71867;SDS011;59738;48.324;14.230;2023-03-16T14:38:37;1.17;;;1.10;;
71867;SDS011;59738;48.324;14.230;2023-03-16T14:41:12;1.45;;;1.15;;
71867;SDS011;59738;48.324;14.230;2023-03-16T14:43:45;1.35;;;1.33;;
71867;SDS011;59738;48.324;14.230;2023-03-16T14:46:14;1.13;;;1.13;;
71867;SDS011;59738;48.324;14.230;2023-03-16T14:48:51;1.50;;;1.40;;
71867;SDS011;59738;48.324;14.230;2023-03-16T14:51:25;1.70;;;1.10;;
71867;SDS011;59738;48.324;14.230;2023-03-16T14:53:55;1.10;;;1.10;;
71867;SDS011;59738;48.324;14.230;2023-03-16T14:56:23;1.52;;;1.42;;